Aérodrome :
LOGIN :

S'inscrire | Disclaimer

   EN    FR    IT 

 










Légende :    VFR   VFR Marginal   IFR   IFR Intensif   IFR Très Intensif
Visi : 
Plafond : 
>= 8 km
>= 3000ft
5 à 8 km
1000 à 3000 ft
1500m à 5 km
500 à 1000 ft
800 à 1500m
200 à 500 ft
< 800m
< 200 ft
Symboles :   Orages  Brouillard  Fortes neiges  Fortes précipitations  Vent > 20 kt
SIGMETs :   Divers  Orages  Givrage  Turbulence  Onde Orograph.  Cendres Volcan.







- Altitude de l'aérodrome : 1768 ft


LEHC - Huesca Pirineos

DERNIER METAR :
  • 230130Z AUTO 01003KT 300V060 9999 NCD 13/08 Q1019

METARs EXPIRÉS :
  • 230100Z AUTO 06005KT 9999 NCD 13/08 Q1019
  • 230030Z AUTO 07006KT 040V100 9999 NCD 14/08 Q1019
  • 230000Z AUTO 08007KT 9999 NCD 14/08 Q1019
  • 222330Z AUTO 09006KT 9999 NCD 14/08 Q1019
  • 222300Z AUTO 11003KT 070V150 CAVOK 14/08 Q1019

TAF TAF LEHC
Valide du 22 à 09h jusqu'au 23 à 09h UTC


220800Z 2209/2309 14007KT 9999 FEW040 TX22/2213Z TN11/2306Z
Pas de NOTAMs connus pour ce terrain.
1 SIGMET publié pour la FIR Madrid (LECM) :
 
Orages noyés dans la masse
LECM SIGMET 16 VALID 230100/230500 LEVA
LECM MADRID FIR/UIR EMBD TS OBS AT 2358Z WI N3559 W00640 - N3942 W00609 - N3944 W00245 - N36 W00317 - N3559 W00640 TOP FL360 MOV NNE 20KT NC=



MET'MAP, la Météo Aéronautique d'un coup d'oeil ! - Copyright ORBIFLY Décembre 2007 - Disclaimer

ORBIFLY MET'MAP TEAM :

Programmation & Développement : Alexandra Zaïnal
Conception & Développement : Baudouin d'Aumeries
Co-Programmation & Développement : Marc-Olivier Méhu
Soutien technique & logistique : Manuel Goepfert

Contact : metmap@orbifly.com




SOURCES & CREDITS :

   NOAA